Terminal Aerodrome Forecast
Issued by NWS

Home | Current Version | Previous Version | Graphics & Text | Print | Product List | Glossary On
Versions: 1 2 3 4 5 6 7 8 9 10 11 12
584
FTUS45 KGGW 212327
TAFSDY
TAF
KSDY 212327Z 2200/2224 14021G31KT P6SM SCT150
     FM220200 15015KT P6SM BKN110
     FM220600 18014KT P6SM VCSH BKN040
     FM220900 19007KT P6SM BKN080 PROB30 2209/2212 6SM -SHRA OVC040
     FM221500 24009KT P6SM BKN100
      AMD LTD TO CLD VIS AND WIND=

USA.gov is the U.S. government's official web portal to all federal, state and local government web resources and services.